Météo Nord-Pas-de-Calais   La météo au plus près de chez vous

Station météorologique

Observations météo à Toulouse-Blagnac (31069)

31069001 151 m Dernier relevé à 16:12
27.4°C
Humidité 41 % Vent 9.7 km/h 1021.6 hPa

Journée consultée

Lundi 31 Août 2026

Synthèse de la journée

Périodes de référence en UTC

Température maximale

27.8°C

à 16:00

06h 06h

Température minimale

20°C

à 07:18

18h 18h

Rafale maximale

31 km/h

à 15:36

00h 00h

Précipitations

0 mm

Cumul quotidien

06h 06h

Ensoleillement

1h 50 mins

Durée quotidienne

00h 00h

Graphiques de la journée

Heure locale Réduire

Données détaillées

Relevés météo

Pas de 6 minutes Afficher les relevés infra-horaires
Relevés météo détaillés à Toulouse-Blagnac pour le Lundi 31 Août 2026
Heure Température °C Point de rosée °C Humidité % Vent moyen (raf.), km/h Précipitations mm Température à 10 cm °C Température à 20 cm °C Température à 50 cm °C Température à 100 cm °C Visibilité m État du sol   Hauteur neige cm Ensoleillement min Rayonnement global W/m² Pression hPa Nébulosité Octas
16:12 27.4 °C 11.4 °C 37 % 15 km/h (30 km/h) 0 mm0 mm 26.3 °C 25.4 °C 24.6 °C 23.2 °C 60000 m 0   0 cm 4 min 244.6 W/m² 1021.1 hPa
16:06 27.6 °C 11.2 °C 36 % 10 km/h (20 km/h) 0 mm0 mm 26.3 °C 25.4 °C 24.6 °C 23.2 °C 60000 m 0   0 cm 5 min 223.9 W/m² 1021.1 hPa
16:00 27.8 °C 11.4 °C 36 % 7 km/h (20 km/h) 0 mm0 mm 26.3 °C 25.4 °C 24.6 °C 23.2 °C 60000 m 0   0 cm 6 min 286.4 W/m² 1021.1 hPa
15:54 27.2 °C 12 °C 39 % 10 km/h (23 km/h) 0 mm0 mm 26.2 °C 25.4 °C 24.6 °C 23.2 °C 60000 m 0   0 cm 6 min 296.7 W/m² 1020.9 hPa
15:48 26.5 °C 11.8 °C 40 % 13 km/h (24 km/h) 0 mm0 mm 26.2 °C 25.3 °C 24.6 °C 23.2 °C 60000 m 0   0 cm 4 min 225.1 W/m² 1021.3 hPa
15:42 25.9 °C 11.6 °C 41 % 14 km/h (31 km/h) 0 mm0 mm 26.1 °C 25.3 °C 24.6 °C 23.2 °C 60000 m 0   0 cm 2 min 161.7 W/m² 1021.4 hPa
15:36 25.8 °C 11.5 °C 41 % 17 km/h (31 km/h) 0 mm0 mm 26.1 °C 25.3 °C 24.6 °C 23.2 °C 60000 m 0   0 cm 1 min 143.1 W/m² 1021.5 hPa
15:30 25.9 °C 12 °C 42 % 15 km/h (31 km/h) 0 mm0 mm 26 °C 25.3 °C 24.5 °C 23.2 °C 60000 m 0   0 cm 0 min 136.5 W/m² 1021.5 hPa
15:24 26.6 °C 11.1 °C 38 % 9 km/h (21 km/h) 0 mm0 mm 26 °C 25.3 °C 24.6 °C 23.2 °C 60000 m 0   0 cm 0 min 122.5 W/m² 1021.5 hPa
15:18 27.3 °C 11.7 °C 38 % 13 km/h (25 km/h) 0 mm0 mm 26 °C 25.3 °C 24.6 °C 23.2 °C 60000 m 0   0 cm 6 min 344.5 W/m² 1021.4 hPa
15:12 27 °C 12.6 °C 41 % 10 km/h (25 km/h) 0 mm0 mm 25.9 °C 25.2 °C 24.6 °C 23.2 °C 19590 m 0   0 cm 5 min 305.9 W/m² 1021.6 hPa
15:06 26.1 °C 12.5 °C 43 % 10 km/h (20 km/h) 0 mm0 mm 25.9 °C 25.2 °C 24.6 °C 23.2 °C 19590 m 0   0 cm 2 min 175.3 W/m² 1021.6 hPa
15:00 26.3 °C 11.6 °C 40 % 12 km/h (24 km/h) 0 mm0 mm 25.9 °C 25.2 °C 24.6 °C 23.2 °C 60000 m 0   0 cm 3 min 232.8 W/m² 1021.6 hPa 6 Octas
14:54 26.6 °C 11.9 °C 40 % 13 km/h (24 km/h) 0 mm0 mm 25.8 °C 25.2 °C 24.6 °C 23.2 °C 60000 m 0   0 cm 4 min 287.8 W/m² 1021.6 hPa
14:48 25.9 °C 12.4 °C 43 % 14 km/h (24 km/h) 0 mm0 mm 25.8 °C 25.2 °C 24.6 °C 23.2 °C 60000 m 0   0 cm 3 min 254.5 W/m² 1021.6 hPa
14:42 25.7 °C 12.2 °C 43 % 13 km/h (21 km/h) 0 mm0 mm 25.8 °C 25.2 °C 24.6 °C 23.2 °C 60000 m 0   0 cm 2 min 181.8 W/m² 1021.6 hPa
14:36 25.3 °C 11.8 °C 43 % 9 km/h (19 km/h) 0 mm0 mm 25.7 °C 25.2 °C 24.6 °C 23.2 °C 60000 m 0   0 cm 0 min 132.3 W/m² 1021.8 hPa
14:30 25 °C 11.9 °C 44 % 13 km/h (28 km/h) 0 mm0 mm 25.7 °C 25.2 °C 24.6 °C 23.2 °C 60000 m 0   0 cm 0 min 126.7 W/m² 1021.8 hPa
14:24 25.4 °C 11.9 °C 43 % 16 km/h (23 km/h) 0 mm0 mm 25.6 °C 25.2 °C 24.6 °C 23.2 °C 60000 m 0   0 cm 0 min 164.9 W/m² 1021.8 hPa
14:18 25.6 °C 11.7 °C 42 % 11 km/h (21 km/h) 0 mm0 mm 25.6 °C 25.1 °C 24.6 °C 23.2 °C 60000 m 0   0 cm 0 min 175.4 W/m² 1021.8 hPa
14:12 25.2 °C 11.7 °C 43 % 9 km/h (19 km/h) 0 mm0 mm 25.6 °C 25.1 °C 24.6 °C 23.2 °C 60000 m 0   0 cm 0 min 140 W/m² 1021.8 hPa
14:06 25.1 °C 11.3 °C 42 % 10 km/h (19 km/h) 0 mm0 mm 25.5 °C 25.1 °C 24.6 °C 23.2 °C 60000 m 0   0 cm 0 min 151.9 W/m² 1021.9 hPa
14:00 25.5 °C 12 °C 43 % 10 km/h (22 km/h) 0 mm0 mm 25.5 °C 25.1 °C 24.6 °C 23.2 °C 60000 m 0   0 cm 1 min 182.8 W/m² 1021.9 hPa 8 Octas
13:54 25.7 °C 12.2 °C 43 % 15 km/h (25 km/h) 0 mm0 mm 25.4 °C 25.1 °C 24.6 °C 23.2 °C 60000 m 0   3 min 245.1 W/m² 1021.8 hPa
13:48 26 °C 11.7 °C 41 % 15 km/h (25 km/h) 0 mm0 mm 25.4 °C 25.1 °C 24.6 °C 23.2 °C 60000 m 0   0 cm 6 min 241.1 W/m² 1021.8 hPa
13:42 26.1 °C 12.2 °C 42 % 11 km/h (24 km/h) 0 mm0 mm 25.3 °C 25.1 °C 24.6 °C 23.2 °C 60000 m 0   0 cm 5 min 309.7 W/m² 1021.8 hPa
13:36 25.2 °C 11.7 °C 43 % 10 km/h (17 km/h) 0 mm0 mm 25.3 °C 25.1 °C 24.6 °C 23.2 °C 60000 m 0   0 cm 1 min 169.9 W/m² 1021.9 hPa
13:30 25.6 °C 12.4 °C 44 % 8 km/h (17 km/h) 0 mm0 mm 25.3 °C 25.1 °C 24.6 °C 23.2 °C 60000 m 0   0 cm 6 min 334.2 W/m² 1021.8 hPa
13:24 24.9 °C 12.8 °C 47 % 5 km/h (11 km/h) 0 mm0 mm 25.2 °C 25.1 °C 24.6 °C 23.2 °C 60000 m 0   0 cm 6 min 311.5 W/m² 1021.9 hPa
13:18 24.5 °C 12.8 °C 48 % 9 km/h (22 km/h) 0 mm0 mm 25.2 °C 25.1 °C 24.6 °C 23.2 °C 60000 m 0   0 cm 5 min 241.3 W/m² 1022 hPa
13:12 24.3 °C 12.6 °C 48 % 12 km/h (22 km/h) 0 mm0 mm 25.2 °C 25.1 °C 24.6 °C 23.2 °C 60000 m 0   0 cm 0 min 150 W/m² 1022 hPa
13:06 24.7 °C 12.6 °C 47 % 11 km/h (17 km/h) 0 mm0 mm 25.2 °C 25.1 °C 24.6 °C 23.2 °C 60000 m 0   0 cm 0 min 172.5 W/m² 1022.1 hPa
13:00 24.4 °C 12.7 °C 48 % 11 km/h (19 km/h) 0 mm0 mm 25.1 °C 25 °C 24.6 °C 23.2 °C 60000 m 0   0 cm 3 min 198.7 W/m² 1022.2 hPa 8 Octas
12:54 24.5 °C 13.1 °C 49 % 11 km/h (19 km/h) 0 mm0 mm 25.1 °C 25.1 °C 24.6 °C 23.2 °C 60000 m 0   0 cm 2 min 199 W/m² 1022.2 hPa
12:48 24.2 °C 12.5 °C 48 % 11 km/h (19 km/h) 0 mm0 mm 25.1 °C 25.1 °C 24.6 °C 23.2 °C 60000 m 0   0 cm 3 min 198.7 W/m² 1022.3 hPa
12:42 24.2 °C 12.8 °C 49 % 11 km/h (19 km/h) 0 mm0 mm 25.1 °C 25.1 °C 24.6 °C 23.2 °C 60000 m 0   0 cm 6 min 232.9 W/m² 1022.3 hPa
12:36 24 °C 12.6 °C 49 % 9 km/h (19 km/h) 0 mm0 mm 25.1 °C 25.1 °C 24.6 °C 23.2 °C 60000 m 0   0 cm 0 min 172.5 W/m² 1022.3 hPa
12:30 23.7 °C 13.3 °C 52 % 9 km/h (18 km/h) 0 mm0 mm 25.1 °C 25.1 °C 24.6 °C 23.2 °C 19500 m 0   0 cm 0 min 167.4 W/m² 1022.3 hPa
12:24 23.5 °C 13.1 °C 52 % 11 km/h (18 km/h) 0 mm0 mm 25 °C 25.1 °C 24.6 °C 23.2 °C 19500 m 0   0 cm 3 min 189.9 W/m² 1022.3 hPa
12:18 23 °C 13.7 °C 56 % 13 km/h (24 km/h) 0 mm0 mm 25 °C 25.1 °C 24.6 °C 23.2 °C 60000 m 0   0 cm 0 min 145.1 W/m² 1022.4 hPa
12:12 23.1 °C 13.8 °C 56 % 14 km/h (24 km/h) 0 mm0 mm 25 °C 25.1 °C 24.6 °C 23.2 °C 60000 m 0   0 cm 0 min 126.9 W/m² 1022.4 hPa
12:06 23 °C 13.5 °C 55 % 14 km/h (20 km/h) 0 mm0 mm 25 °C 25.1 °C 24.6 °C 23.2 °C 60000 m 0   0 cm 0 min 134.5 W/m² 1022.4 hPa
12:00 22.8 °C 13.6 °C 56 % 14 km/h (23 km/h) 0 mm0 mm 24.9 °C 25.1 °C 24.6 °C 23.2 °C 60000 m 0   0 cm 0 min 111.5 W/m² 1022.4 hPa 7 Octas
11:54 23 °C 13.7 °C 56 % 12 km/h (26 km/h) 0 mm0 mm 25 °C 25.1 °C 24.6 °C 23.2 °C 60000 m 0   0 cm 0 min 108.4 W/m² 1022.4 hPa
11:48 23 °C 14.3 °C 58 % 10 km/h (16 km/h) 0 mm0 mm 24.9 °C 25.1 °C 24.6 °C 23.2 °C 60000 m 0   0 cm 0 min 156.5 W/m² 1022.4 hPa
11:42 22.8 °C 13.8 °C 57 % 12 km/h (22 km/h) 0 mm0 mm 24.9 °C 25.1 °C 24.6 °C 23.2 °C 60000 m 0   0 cm 0 min 128.5 W/m² 1022.4 hPa
11:36 23 °C 14.3 °C 58 % 11 km/h (22 km/h) 0 mm0 mm 24.9 °C 25.1 °C 24.6 °C 23.2 °C 60000 m 0   0 cm 5 min 171.6 W/m² 1022.4 hPa
11:30 22.5 °C 14.3 °C 60 % 12 km/h (21 km/h) 0 mm0 mm 24.9 °C 25.1 °C 24.6 °C 23.2 °C 60000 m 0   0 cm 0 min 155.7 W/m² 1022.4 hPa
11:24 22.4 °C 14.3 °C 60 % 14 km/h (22 km/h) 0 mm0 mm 24.9 °C 25.1 °C 24.6 °C 23.2 °C 60000 m 0   0 cm 0 min 138.8 W/m² 1022.4 hPa
11:18 22.4 °C 14 °C 59 % 13 km/h (21 km/h) 0 mm0 mm 24.9 °C 25.1 °C 24.6 °C 23.2 °C 60000 m 0   0 cm 0 min 119.4 W/m² 1022.4 hPa
11:12 22.5 °C 14.9 °C 62 % 12 km/h (21 km/h) 0 mm0 mm 24.9 °C 25.1 °C 24.6 °C 23.2 °C 60000 m 0   0 cm 0 min 129.7 W/m² 1022.4 hPa
11:06 22.3 °C 14.9 °C 63 % 12 km/h (21 km/h) 0 mm0 mm 24.9 °C 25.1 °C 24.6 °C 23.2 °C 60000 m 0   0 cm 0 min 134.6 W/m² 1022.4 hPa
11:00 22.2 °C 14.8 °C 63 % 12 km/h (21 km/h) 0 mm0 mm 24.9 °C 25.1 °C 24.6 °C 23.2 °C 60000 m 0   0 cm 0 min 130.7 W/m² 1022.4 hPa 8 Octas
10:54 22 °C 14.6 °C 63 % 11 km/h (16 km/h) 0 mm0 mm 24.9 °C 25.1 °C 24.6 °C 23.2 °C 60000 m 0   0 min 106.4 W/m² 1022.3 hPa
10:48 21.7 °C 15.1 °C 66 % 12 km/h (18 km/h) 0 mm0 mm 24.9 °C 25.1 °C 24.6 °C 23.2 °C 60000 m 0   0 cm 0 min 83.3 W/m² 1022.4 hPa
10:42 21.7 °C 15.1 °C 66 % 11 km/h (18 km/h) 0 mm0 mm 24.9 °C 25.1 °C 24.6 °C 23.2 °C 60000 m 0   0 cm 0 min 85 W/m² 1022.3 hPa
10:36 21.5 °C 15.1 °C 67 % 11 km/h (18 km/h) 0 mm0 mm 24.9 °C 25.2 °C 24.6 °C 23.2 °C 60000 m 0   0 cm 0 min 86.5 W/m² 1022.3 hPa
10:30 21.5 °C 15.3 °C 68 % 8 km/h (17 km/h) 0 mm0 mm 24.8 °C 25.2 °C 24.6 °C 23.2 °C 60000 m 0   0 cm 0 min 78.3 W/m² 1022.3 hPa
10:24 21.2 °C 15.5 °C 70 % 7 km/h (15 km/h) 0 mm0 mm 24.9 °C 25.2 °C 24.6 °C 23.2 °C 60000 m 0   0 cm 0 min 73.5 W/m² 1022.3 hPa
10:18 21 °C 15.3 °C 70 % 11 km/h (20 km/h) 0 mm0 mm 24.9 °C 25.2 °C 24.6 °C 23.2 °C 60000 m 0   0 cm 0 min 64.8 W/m² 1022.3 hPa
10:12 21.1 °C 15.4 °C 70 % 10 km/h (20 km/h) 0 mm0 mm 24.9 °C 25.2 °C 24.6 °C 23.2 °C 60000 m 0   0 cm 0 min 53.2 W/m² 1022.2 hPa
10:06 21.2 °C 15.5 °C 70 % 11 km/h (18 km/h) 0 mm0 mm 24.9 °C 25.2 °C 24.6 °C 23.2 °C 60000 m 0   0 cm 0 min 50.6 W/m² 1022.2 hPa
10:00 21 °C 15.3 °C 70 % 12 km/h (19 km/h) 0 mm0 mm 24.9 °C 25.2 °C 24.6 °C 23.2 °C 60000 m 0   0 cm 0 min 57.8 W/m² 1022.1 hPa 8 Octas
09:54 20.9 °C 15 °C 69 % 14 km/h (20 km/h) 0 mm0 mm 24.9 °C 25.2 °C 24.6 °C 23.2 °C 60000 m 0   0 cm 0 min 62.3 W/m² 1022.1 hPa
09:48 20.9 °C 15.2 °C 70 % 14 km/h (20 km/h) 0 mm0 mm 24.9 °C 25.2 °C 24.6 °C 23.2 °C 60000 m 0   0 cm 0 min 56.1 W/m² 1022.1 hPa
09:42 21 °C 15.3 °C 70 % 15 km/h (21 km/h) 0 mm0 mm 24.9 °C 25.2 °C 24.6 °C 23.2 °C 60000 m 0   0 cm 0 min 62 W/m² 1022.1 hPa
09:36 20.9 °C 15.2 °C 70 % 14 km/h (21 km/h) 0 mm0 mm 24.9 °C 25.3 °C 24.6 °C 23.2 °C 60000 m 0   0 cm 0 min 45.1 W/m² 1022 hPa
09:30 20.8 °C 15.3 °C 71 % 15 km/h (20 km/h) 0 mm0 mm 24.9 °C 25.3 °C 24.6 °C 23.2 °C 60000 m 0   0 cm 0 min 44.4 W/m² 1022 hPa
09:24 20.7 °C 15.3 °C 71 % 14 km/h (19 km/h) 0 mm0 mm 24.9 °C 25.3 °C 24.6 °C 23.2 °C 60000 m 0   0 cm 0 min 38.6 W/m² 1022 hPa
09:18 20.8 °C 15.3 °C 71 % 12 km/h (18 km/h) 0 mm0 mm 24.9 °C 25.3 °C 24.6 °C 23.2 °C 60000 m 0   0 cm 0 min 42.5 W/m² 1021.9 hPa
09:12 20.7 °C 15.3 °C 71 % 13 km/h (20 km/h) 0 mm0 mm 24.9 °C 25.3 °C 24.6 °C 23.2 °C 60000 m 0   0 cm 0 min 40.5 W/m² 1021.8 hPa
09:06 20.8 °C 15.6 °C 72 % 14 km/h (20 km/h) 0 mm0 mm 24.9 °C 25.3 °C 24.6 °C 23.2 °C 60000 m 0   0 cm 0 min 57.5 W/m² 1021.8 hPa
09:00 20.6 °C 15.4 °C 72 % 13 km/h (20 km/h) 0 mm0 mm 25 °C 25.3 °C 24.6 °C 23.2 °C 60000 m 0   0 cm 0 min 42.9 W/m² 1021.7 hPa 8 Octas
08:54 20.5 °C 15.3 °C 72 % 15 km/h (20 km/h) 0 mm0 mm 25 °C 25.4 °C 24.6 °C 23.2 °C 60000 m 0   0 cm 0 min 36 W/m² 1021.7 hPa
08:48 20.7 °C 15.5 °C 72 % 16 km/h (20 km/h) 0 mm0 mm 25 °C 25.4 °C 24.6 °C 23.2 °C 60000 m 0   0 cm 0 min 34 W/m² 1021.7 hPa
08:42 20.6 °C 15.4 °C 72 % 14 km/h (20 km/h) 0 mm0 mm 25 °C 25.4 °C 24.6 °C 23.2 °C 60000 m 0   0 cm 1 min 39.1 W/m² 1021.7 hPa
08:36 20.5 °C 15.3 °C 72 % 14 km/h (18 km/h) 0 mm0 mm 25 °C 25.4 °C 24.6 °C 23.2 °C 60000 m 0   0 cm 0 min 35.7 W/m² 1021.6 hPa
08:30 20.5 °C 15.5 °C 73 % 15 km/h (19 km/h) 0 mm0 mm 25 °C 25.4 °C 24.6 °C 23.2 °C 60000 m 0   0 cm 1 min 36.1 W/m² 1021.5 hPa
08:24 20.5 °C 15.5 °C 73 % 15 km/h (22 km/h) 0 mm0 mm 25 °C 25.4 °C 24.6 °C 23.2 °C 60000 m 0   0 cm 0 min 30.8 W/m² 1021.5 hPa
08:18 20.3 °C 15.3 °C 73 % 15 km/h (22 km/h) 0 mm0 mm 25.1 °C 25.4 °C 24.6 °C 23.2 °C 60000 m 0   0 cm 0 min 22.1 W/m² 1021.4 hPa
08:12 20.3 °C 15.3 °C 73 % 16 km/h (22 km/h) 0 mm0 mm 25.1 °C 25.4 °C 24.6 °C 23.2 °C 60000 m 0   0 cm 0 min 14.4 W/m² 1021.4 hPa
08:06 20.3 °C 15.3 °C 73 % 15 km/h (20 km/h) 0 mm0 mm 25.1 °C 25.5 °C 24.6 °C 23.2 °C 60000 m 0   0 cm 0 min 13.2 W/m² 1021.4 hPa
08:00 20.3 °C 15.3 °C 73 % 15 km/h (19 km/h) 0 mm0 mm 25.1 °C 25.5 °C 24.6 °C 23.2 °C 60000 m 0   0 cm 0 min 14.2 W/m² 1021.3 hPa 8 Octas
07:54 20.3 °C 15.3 °C 73 % 14 km/h (19 km/h) 0 mm0 mm 25.1 °C 25.5 °C 24.6 °C 23.2 °C 60000 m 0   0 cm 0 min 12.4 W/m² 1021.2 hPa
07:48 20.2 °C 15.2 °C 73 % 14 km/h (18 km/h) 0 mm0 mm 25.1 °C 25.5 °C 24.6 °C 23.2 °C 60000 m 0   0 cm 0 min 7.3 W/m² 1021.2 hPa
07:42 20.1 °C 15.3 °C 74 % 14 km/h (18 km/h) 0 mm0 mm 25.1 °C 25.5 °C 24.6 °C 23.2 °C 60000 m 0   0 cm 0 min 0 W/m² 1021.2 hPa
07:36 20.1 °C 15.1 °C 73 % 13 km/h (18 km/h) 0 mm0 mm 25.2 °C 25.5 °C 24.6 °C 23.2 °C 60000 m 0   0 cm 0 min 0 W/m² 1021.2 hPa
07:30 20 °C 15 °C 73 % 14 km/h (17 km/h) 0 mm0 mm 25.2 °C 25.5 °C 24.6 °C 23.2 °C 60000 m 0   0 cm 0 min 0 W/m² 1021.1 hPa
07:24 20 °C 15 °C 73 % 14 km/h (18 km/h) 0 mm0 mm 25.2 °C 25.5 °C 24.6 °C 23.2 °C 60000 m 0   0 cm 0 min 0 W/m² 1021.1 hPa
07:18 20 °C 15 °C 73 % 14 km/h (18 km/h) 0 mm0 mm 25.2 °C 25.6 °C 24.6 °C 23.2 °C 60000 m 0   0 cm 0 min 0 W/m² 1021.1 hPa
07:12 20.1 °C 15.1 °C 73 % 15 km/h (20 km/h) 0 mm0 mm 25.3 °C 25.6 °C 24.6 °C 23.2 °C 60000 m 0   0 cm 0 min 0 W/m² 1021 hPa
07:06 20.1 °C 15.1 °C 73 % 15 km/h (20 km/h) 0 mm0 mm 25.3 °C 25.6 °C 24.6 °C 23.2 °C 60000 m 0   0 cm 0 min 0 W/m² 1021 hPa
07:00 20.1 °C 15.1 °C 73 % 14 km/h (17 km/h) 0 mm0 mm 25.3 °C 25.6 °C 24.6 °C 23.2 °C 60000 m 0   0 cm 0 min 0 W/m² 1020.9 hPa 8 Octas
06:54 20.1 °C 14.9 °C 72 % 15 km/h (19 km/h) 0 mm0 mm 25.3 °C 25.6 °C 24.6 °C 23.2 °C 60000 m 0   0 cm 0 min 0 W/m² 1021 hPa
06:48 20.1 °C 14.9 °C 72 % 15 km/h (19 km/h) 0 mm0 mm 25.3 °C 25.6 °C 24.6 °C 23.2 °C 60000 m 0   0 cm 0 min 0 W/m² 1021 hPa
06:42 20.1 °C 14.9 °C 72 % 13 km/h (17 km/h) 0 mm0 mm 25.3 °C 25.6 °C 24.6 °C 23.2 °C 60000 m 0   0 cm 0 min 0 W/m² 1021 hPa
06:36 20.2 °C 14.8 °C 71 % 13 km/h (19 km/h) 0 mm0 mm 25.4 °C 25.6 °C 24.6 °C 23.2 °C 60000 m 0   0 cm 0 min 0 W/m² 1021 hPa
06:30 20.4 °C 15 °C 71 % 14 km/h (18 km/h) 0 mm0 mm 25.4 °C 25.7 °C 24.6 °C 23.2 °C 60000 m 0   0 cm 0 min 0 W/m² 1020.9 hPa
06:24 20.5 °C 14.8 °C 70 % 15 km/h (18 km/h) 0 mm0 mm 25.4 °C 25.7 °C 24.6 °C 23.2 °C 60000 m 0   0 cm 0 min 0 W/m² 1020.9 hPa
06:18 20.5 °C 14.8 °C 70 % 15 km/h (22 km/h) 0 mm0 mm 25.4 °C 25.7 °C 24.6 °C 23.2 °C 60000 m 0   0 cm 0 min 0 W/m² 1020.9 hPa
06:12 20.5 °C 14.8 °C 70 % 15 km/h (19 km/h) 0 mm0 mm 25.5 °C 25.7 °C 24.6 °C 23.2 °C 60000 m 0   0 cm 0 min 0 W/m² 1020.9 hPa
06:06 20.5 °C 14.8 °C 70 % 16 km/h (20 km/h) 0 mm0 mm 25.5 °C 25.7 °C 24.6 °C 23.2 °C 60000 m 0   0 cm 0 min 0 W/m² 1020.9 hPa
06:00 20.6 °C 14.9 °C 70 % 16 km/h (20 km/h) 0 mm0 mm 25.5 °C 25.7 °C 24.6 °C 23.2 °C 60000 m 0   0 cm 0 min 0 W/m² 1020.9 hPa 8 Octas
05:54 20.6 °C 14.9 °C 70 % 17 km/h (23 km/h) 0 mm0 mm 25.5 °C 25.7 °C 24.6 °C 23.2 °C 60000 m 0   0 cm 0 min 0 W/m² 1020.9 hPa
05:48 20.6 °C 14.9 °C 70 % 17 km/h (23 km/h) 0 mm0 mm 25.5 °C 25.8 °C 24.6 °C 23.2 °C 60000 m 0   0 cm 0 min 0 W/m² 1021 hPa
05:42 20.6 °C 14.9 °C 70 % 16 km/h (21 km/h) 0 mm0 mm 25.6 °C 25.8 °C 24.6 °C 23.2 °C 60000 m 0   0 cm 0 min 0 W/m² 1021 hPa
05:36 20.6 °C 14.9 °C 70 % 15 km/h (21 km/h) 0 mm0 mm 25.6 °C 25.8 °C 24.6 °C 23.2 °C 60000 m 0   0 cm 0 min 0 W/m² 1021.1 hPa
05:30 20.6 °C 14.9 °C 70 % 14 km/h (18 km/h) 0 mm0 mm 25.6 °C 25.8 °C 24.6 °C 23.2 °C 60000 m 0   0 cm 0 min 0 W/m² 1021.1 hPa
05:24 20.7 °C 15 °C 70 % 13 km/h (17 km/h) 0 mm0 mm 25.6 °C 25.8 °C 24.6 °C 23.2 °C 60000 m 0   0 cm 0 min 0 W/m² 1021.1 hPa
05:18 20.7 °C 15 °C 70 % 14 km/h (18 km/h) 0 mm0 mm 25.6 °C 25.8 °C 24.6 °C 23.2 °C 60000 m 0   0 cm 0 min 0 W/m² 1021.2 hPa
05:12 20.7 °C 15 °C 70 % 15 km/h (19 km/h) 0 mm0 mm 25.6 °C 25.8 °C 24.6 °C 23.2 °C 60000 m 0   0 cm 0 min 0 W/m² 1021.2 hPa
05:06 20.7 °C 15 °C 70 % 15 km/h (18 km/h) 0 mm0 mm 25.7 °C 25.8 °C 24.6 °C 23.2 °C 60000 m 0   0 cm 0 min 0 W/m² 1021.2 hPa
05:00 20.7 °C 14.8 °C 69 % 13 km/h (18 km/h) 0 mm0 mm 25.7 °C 25.8 °C 24.6 °C 23.2 °C 60000 m 0   0 cm 0 min 0 W/m² 1021.2 hPa 8 Octas
04:54 20.8 °C 15.1 °C 70 % 11 km/h (15 km/h) 0 mm0 mm 25.7 °C 25.8 °C 24.6 °C 23.2 °C 60000 m 0   0 cm 0 min 0 W/m² 1021.2 hPa
04:48 20.9 °C 15.2 °C 70 % 14 km/h (19 km/h) 0 mm0 mm 25.7 °C 25.8 °C 24.5 °C 23.2 °C 60000 m 0   0 cm 0 min 0 W/m² 1021.2 hPa
04:42 20.9 °C 15 °C 69 % 14 km/h (19 km/h) 0 mm0 mm 25.7 °C 25.9 °C 24.6 °C 23.2 °C 60000 m 0   0 cm 0 min 0 W/m² 1021.2 hPa
04:36 20.9 °C 15 °C 69 % 13 km/h (18 km/h) 0 mm0 mm 25.8 °C 25.9 °C 24.5 °C 23.2 °C 60000 m 0   0 cm 0 min 0 W/m² 1021.1 hPa
04:30 20.9 °C 15 °C 69 % 13 km/h (18 km/h) 0 mm0 mm 25.8 °C 25.9 °C 24.6 °C 23.2 °C 60000 m 0   0 cm 0 min 0 W/m² 1021.1 hPa
04:24 21 °C 15.1 °C 69 % 14 km/h (21 km/h) 0 mm0 mm 25.8 °C 25.9 °C 24.5 °C 23.2 °C 60000 m 0   0 cm 0 min 0 W/m² 1021 hPa
04:18 21 °C 14.9 °C 68 % 15 km/h (21 km/h) 0 mm0 mm 25.8 °C 25.9 °C 24.5 °C 23.2 °C 60000 m 0   0 cm 0 min 0 W/m² 1021 hPa
04:12 20.9 °C 15.2 °C 70 % 15 km/h (20 km/h) 0 mm0 mm 25.8 °C 25.9 °C 24.5 °C 23.2 °C 59940 m 0   0 cm 0 min 0 W/m² 1021.1 hPa
04:06 21 °C 15.1 °C 69 % 16 km/h (20 km/h) 0 mm0 mm 25.9 °C 26 °C 24.5 °C 23.2 °C 59670 m 0   0 cm 0 min 0 W/m² 1021.1 hPa
04:00 21.1 °C 15.2 °C 69 % 17 km/h (21 km/h) 0 mm0 mm 25.9 °C 26 °C 24.5 °C 23.2 °C 60000 m 0   0 cm 0 min 0 W/m² 1021.1 hPa 8 Octas
03:54 21.1 °C 15.2 °C 69 % 16 km/h (21 km/h) 0 mm0 mm 25.9 °C 26 °C 24.5 °C 23.2 °C 60000 m 0   0 cm 0 min 0 W/m² 1021.1 hPa
03:48 21.1 °C 15 °C 68 % 14 km/h (19 km/h) 0 mm0 mm 25.9 °C 26 °C 24.6 °C 23.2 °C 60000 m 0   0 cm 0 min 0 W/m² 1021.1 hPa
03:42 21.1 °C 15 °C 68 % 15 km/h (20 km/h) 0 mm0 mm 25.9 °C 26 °C 24.5 °C 23.2 °C 60000 m 0   0 cm 0 min 0 W/m² 1021.1 hPa
03:36 21.1 °C 15 °C 68 % 14 km/h (18 km/h) 0 mm0 mm 26 °C 26 °C 24.5 °C 23.2 °C 60000 m 0   0 cm 0 min 0 W/m² 1021.1 hPa
03:30 21.1 °C 15 °C 68 % 14 km/h (18 km/h) 0 mm0 mm 26 °C 26 °C 24.5 °C 23.2 °C 60000 m 0   0 cm 0 min 0 W/m² 1021 hPa
03:24 21.2 °C 14.8 °C 67 % 15 km/h (21 km/h) 0 mm0 mm 26 °C 26.1 °C 24.5 °C 23.2 °C 60000 m 0   0 cm 0 min 0 W/m² 1021 hPa
03:18 21.4 °C 15 °C 67 % 17 km/h (21 km/h) 0 mm0 mm 26 °C 26.1 °C 24.5 °C 23.2 °C 60000 m 0   0 cm 0 min 0 W/m² 1021 hPa
03:12 21.4 °C 15 °C 67 % 19 km/h (24 km/h) 0 mm0 mm 26 °C 26.1 °C 24.5 °C 23.2 °C 60000 m 0   0 cm 0 min 0 W/m² 1020.9 hPa
03:06 21.4 °C 15 °C 67 % 19 km/h (24 km/h) 0 mm0 mm 26.1 °C 26.1 °C 24.5 °C 23.2 °C 60000 m 0   0 cm 0 min 0 W/m² 1020.9 hPa
03:00 21.3 °C 14.9 °C 67 % 18 km/h (24 km/h) 0 mm0 mm 26.1 °C 26.1 °C 24.5 °C 23.2 °C 60000 m 0   0 cm 0 min 0 W/m² 1020.9 hPa 8 Octas
02:54 21.4 °C 15.2 °C 68 % 18 km/h (24 km/h) 0 mm0 mm 26.2 °C 26.1 °C 24.5 °C 23.2 °C 60000 m 0   0 cm 0 min 0 W/m² 1020.8 hPa
02:48 21.4 °C 15.2 °C 68 % 18 km/h (23 km/h) 0 mm0 mm 26.2 °C 26.1 °C 24.5 °C 23.2 °C 60000 m 0   0 cm 0 min 0 W/m² 1020.8 hPa
02:42 21.3 °C 15.4 °C 69 % 16 km/h (20 km/h) 0 mm0 mm 26.2 °C 26.1 °C 24.5 °C 23.2 °C 60000 m 0   0 cm 0 min 0 W/m² 1020.8 hPa
02:36 21.4 °C 15.7 °C 70 % 16 km/h (19 km/h) 0 mm0 mm 26.2 °C 26.1 °C 24.5 °C 23.2 °C 60000 m 0   0 cm 0 min 0 W/m² 1020.8 hPa
02:30 21.4 °C 15.7 °C 70 % 15 km/h (19 km/h) 0 mm0 mm 26.2 °C 26.2 °C 24.5 °C 23.2 °C 60000 m 0   0 cm 0 min 0 W/m² 1020.8 hPa
02:24 21.4 °C 15.7 °C 70 % 15 km/h (19 km/h) 0 mm0 mm 26.3 °C 26.2 °C 24.5 °C 23.2 °C 60000 m 0   0 cm 0 min 0 W/m² 1020.7 hPa
02:18 21.4 °C 15.7 °C 70 % 16 km/h (21 km/h) 0 mm0 mm 26.3 °C 26.2 °C 24.5 °C 23.2 °C 60000 m 0   0 cm 0 min 0 W/m² 1020.7 hPa
02:12 21.5 °C 15.6 °C 69 % 17 km/h (21 km/h) 0 mm0 mm 26.3 °C 26.2 °C 24.5 °C 23.2 °C 60000 m 0   0 cm 0 min 0 W/m² 1020.7 hPa
02:06 21.4 °C 15.5 °C 69 % 15 km/h (19 km/h) 0 mm0 mm 26.3 °C 26.2 °C 24.5 °C 23.2 °C 60000 m 0   0 cm 0 min 0 W/m² 1020.7 hPa
02:00 21.6 °C 15.7 °C 69 % 15 km/h (19 km/h) 0 mm0 mm 26.3 °C 26.2 °C 24.5 °C 23.2 °C 60000 m 0   0 cm 0 min 0 W/m² 1020.7 hPa 8 Octas
01:54 21.6 °C 15.7 °C 69 % 15 km/h (19 km/h) 0 mm0 mm 26.4 °C 26.3 °C 24.5 °C 23.2 °C 60000 m 0   0 cm 0 min 0 W/m² 1020.6 hPa
01:48 21.6 °C 15.7 °C 69 % 15 km/h (19 km/h) 0 mm0 mm 26.4 °C 26.3 °C 24.5 °C 23.2 °C 60000 m 0   0 cm 0 min 0 W/m² 1020.7 hPa
01:42 21.5 °C 15.6 °C 69 % 13 km/h (21 km/h) 0 mm0 mm 26.5 °C 26.3 °C 24.5 °C 23.2 °C 60000 m 0   0 cm 0 min 0 W/m² 1020.8 hPa
01:36 21.6 °C 15.7 °C 69 % 14 km/h (21 km/h) 0 mm0 mm 26.5 °C 26.3 °C 24.4 °C 23.2 °C 60000 m 0   0 cm 0 min 0 W/m² 1020.7 hPa
01:30 21.6 °C 15.7 °C 69 % 15 km/h (21 km/h) 0 mm0 mm 26.5 °C 26.3 °C 24.5 °C 23.2 °C 60000 m 0   0 cm 0 min 0 W/m² 1020.7 hPa
01:24 21.6 °C 15.7 °C 69 % 15 km/h (22 km/h) 0 mm0 mm 26.6 °C 26.3 °C 24.4 °C 23.2 °C 60000 m 0   0 cm 0 min 0 W/m² 1020.6 hPa
01:18 21.7 °C 15.8 °C 69 % 14 km/h (18 km/h) 0 mm0 mm 26.6 °C 26.4 °C 24.5 °C 23.2 °C 60000 m 0   0 cm 0 min 0 W/m² 1020.7 hPa
01:12 21.7 °C 15.8 °C 69 % 14 km/h (18 km/h) 0 mm0 mm 26.6 °C 26.3 °C 24.5 °C 23.2 °C 60000 m 0   0 cm 0 min 0 W/m² 1020.6 hPa
01:06 21.7 °C 16 °C 70 % 14 km/h (18 km/h) 0 mm0 mm 26.6 °C 26.4 °C 24.5 °C 23.2 °C 60000 m 0   0 cm 0 min 0 W/m² 1020.6 hPa
01:00 21.7 °C 16 °C 70 % 14 km/h (18 km/h) 0 mm0 mm 26.6 °C 26.4 °C 24.4 °C 23.2 °C 60000 m 0   0 cm 0 min 0 W/m² 1020.6 hPa 8 Octas
00:54 21.8 °C 16.1 °C 70 % 15 km/h (18 km/h) 0 mm0 mm 26.7 °C 26.4 °C 24.4 °C 23.2 °C 60000 m 0   0 cm 0 min 0 W/m² 1020.5 hPa
00:48 21.8 °C 15.9 °C 69 % 15 km/h (19 km/h) 0 mm0 mm 26.7 °C 26.4 °C 24.4 °C 23.2 °C 60000 m 0   0 cm 0 min 0 W/m² 1020.5 hPa
00:42 21.7 °C 15.8 °C 69 % 15 km/h (20 km/h) 0 mm0 mm 26.7 °C 26.4 °C 24.4 °C 23.2 °C 60000 m 0   0 cm 0 min 0 W/m² 1020.5 hPa
00:36 21.8 °C 15.9 °C 69 % 16 km/h (20 km/h) 0 mm0 mm 26.7 °C 26.4 °C 24.4 °C 23.2 °C 60000 m 0   0 cm 0 min 0 W/m² 1020.5 hPa
00:30 21.8 °C 15.9 °C 69 % 14 km/h (19 km/h) 0 mm0 mm 26.8 °C 26.4 °C 24.4 °C 23.2 °C 60000 m 0   0 cm 0 min 0 W/m² 1020.4 hPa
00:24 21.8 °C 15.6 °C 68 % 15 km/h (22 km/h) 0 mm0 mm 26.8 °C 26.4 °C 24.4 °C 23.2 °C 60000 m 0   0 cm 0 min 0 W/m² 1020.3 hPa
00:18 21.8 °C 15.6 °C 68 % 18 km/h (27 km/h) 0 mm0 mm 26.8 °C 26.4 °C 24.4 °C 23.2 °C 60000 m 0   0 cm 0 min 0 W/m² 1020.2 hPa
00:12 21.9 °C 15.7 °C 68 % 19 km/h (27 km/h) 0 mm0 mm 26.8 °C 26.4 °C 24.4 °C 23.2 °C 59590 m 0   0 cm 0 min 0 W/m² 1020.2 hPa
00:06 22 °C 15.6 °C 67 % 22 km/h (31 km/h) 0 mm0 mm 26.9 °C 26.4 °C 24.4 °C 23.2 °C 60000 m 0   0 cm 0 min 0 W/m² 1020.1 hPa
00:00 22 °C 15.8 °C 68 % 24 km/h (31 km/h) 0 mm0 mm 26.9 °C 26.5 °C 24.4 °C 23.2 °C 60000 m 0   0 cm 0 min 0 W/m² 1020.1 hPa 8 Octas

Données via Météo-France

Relevés météo à Toulouse-Blagnac

Cette page rassemble les observations de la station de Toulouse-Blagnac : température, humidité, vent, précipitations et pression atmosphérique. Les graphiques facilitent le suivi de la journée, tandis que le tableau donne accès aux mesures horaires et infra-horaires disponibles.

Pour replacer ces mesures dans leur contexte, consultez la climatologie de Toulouse-Blagnac ainsi que ses normales et records. Retrouvez aussi la carte des observations météo en temps réel.